Time;durP1;ratioP1;P1;durP2;ratioP2;P2;SDS_P1;SDS_P2;PMS_P1;PMS_P2;Temp;Humidity;BMP_temperature;BMP_pressure;BME280_temperature;BME280_humidity;BME280_pressure;Samples;Min_cycle;Max_cycle;Signal;HPM_P1;HPM_P2
2023/12/25 00:00:32;;;;;;;4.15;3.95;;;16.40;99.90;;;;;;5073079;28;20530;-94
2023/12/25 00:03:04;;;;;;;3.92;3.72;;;16.30;99.90;;;;;;5070080;28;20177;-95
2023/12/25 00:05:30;;;;;;;3.95;3.75;;;16.30;99.90;;;;;;5081270;28;20074;-90
2023/12/25 00:08:08;;;;;;;3.67;3.47;;;16.40;99.90;;;;;;5086552;28;20067;-92
2023/12/25 00:10:33;;;;;;;3.60;3.40;;;16.30;99.90;;;;;;5074878;28;20035;-94
2023/12/25 00:12:59;;;;;;;3.88;3.67;;;16.30;99.90;;;;;;5072301;28;20057;-94
2023/12/25 00:15:28;;;;;;;3.92;3.72;;;16.30;99.90;;;;;;5068590;28;20108;-95
2023/12/25 00:17:54;;;;;;;4.65;4.35;;;16.30;99.90;;;;;;5068094;28;20039;-95
2023/12/25 00:20:20;;;;;;;3.95;3.75;;;16.30;99.90;;;;;;5069180;28;20135;-90
2023/12/25 00:22:45;;;;;;;3.65;3.45;;;16.40;99.90;;;;;;5078179;28;20484;-96
2023/12/25 00:25:11;;;;;;;3.55;3.35;;;16.30;99.90;;;;;;5070227;28;20236;-92
2023/12/25 00:28:11;;;;;;;4.05;3.85;;;16.30;99.90;;;;;;5088984;28;20040;-94
2023/12/25 00:30:37;;;;;;;3.97;3.78;;;16.30;99.90;;;;;;5075453;28;20488;-95
2023/12/25 00:33:03;;;;;;;4.20;3.97;;;16.20;99.90;;;;;;5068046;28;20032;-93
2023/12/25 00:35:30;;;;;;;4.50;4.25;;;16.20;99.90;;;;;;5067299;28;20196;-91
2023/12/25 00:38:28;;;;;;;3.90;3.70;;;16.30;99.90;;;;;;5069646;28;20395;-95
2023/12/25 00:40:57;;;;;;;4.53;4.25;;;16.20;99.90;;;;;;5069606;28;20210;-92
2023/12/25 00:43:25;;;;;;;4.05;3.85;;;16.10;99.90;;;;;;5069993;28;20139;-94
2023/12/25 00:45:51;;;;;;;4.57;4.28;;;16.10;99.90;;;;;;5068143;28;20127;-90
2023/12/25 00:48:17;;;;;;;4.15;3.95;;;16.10;99.90;;;;;;5080717;28;20127;-87
2023/12/25 00:50:43;;;;;;;4.65;4.35;;;16.10;99.90;;;;;;5072935;28;20098;-90
2023/12/25 00:53:20;;;;;;;3.83;3.63;;;16.10;99.90;;;;;;5077414;28;20043;-95
2023/12/25 00:55:49;;;;;;;4.57;4.28;;;16.00;99.90;;;;;;5072240;28;20047;-95
2023/12/25 00:58:15;;;;;;;4.15;3.95;;;16.00;99.90;;;;;;5074255;28;20106;-91
2023/12/25 01:00:44;;;;;;;3.90;3.70;;;16.00;99.90;;;;;;5090594;28;20070;-94
2023/12/25 01:03:09;;;;;;;4.05;3.85;;;15.90;99.90;;;;;;5076448;28;20131;-93
2023/12/25 01:05:35;;;;;;;4.15;3.95;;;15.90;99.90;;;;;;5077084;28;20122;-92
2023/12/25 01:08:01;;;;;;;4.53;4.30;;;15.90;99.90;;;;;;5088205;28;20070;-89
2023/12/25 01:10:29;;;;;;;4.38;4.13;;;15.80;99.90;;;;;;5071471;28;20068;-95
2023/12/25 01:12:58;;;;;;;4.43;4.22;;;15.80;99.90;;;;;;5074084;28;20055;-95
2023/12/25 01:15:24;;;;;;;4.28;4.07;;;15.80;99.90;;;;;;5072605;28;20043;-94
2023/12/25 01:17:50;;;;;;;4.10;3.90;;;15.70;99.90;;;;;;5074303;28;20046;-91
2023/12/25 01:20:24;;;;;;;4.25;4.05;;;15.70;99.90;;;;;;5073991;28;20175;-96
2023/12/25 01:22:50;;;;;;;4.85;4.55;;;15.70;99.90;;;;;;5070854;28;20044;-95
2023/12/25 01:25:18;;;;;;;3.92;3.72;;;15.60;99.90;;;;;;5069849;28;20480;-95
2023/12/25 01:27:53;;;;;;;5.25;4.95;;;15.60;99.90;;;;;;5074010;28;20035;-95
2023/12/25 01:30:19;;;;;;;4.63;4.32;;;15.60;99.90;;;;;;5070725;28;20044;-91
2023/12/25 01:32:58;;;;;;;4.97;4.68;;;15.60;99.90;;;;;;5090804;27;20043;-94
2023/12/25 01:35:30;;;;;;;4.82;4.53;;;15.60;99.90;;;;;;5071052;28;20130;-93
2023/12/25 01:37:55;;;;;;;4.10;3.90;;;15.60;99.90;;;;;;5073785;28;20397;-92
2023/12/25 01:40:26;;;;;;;4.10;3.90;;;15.70;99.90;;;;;;5073017;28;20048;-93
2023/12/25 01:43:11;;;;;;;4.32;4.13;;;15.50;99.90;;;;;;5090941;28;20052;-93
2023/12/25 01:45:39;;;;;;;4.03;3.83;;;15.60;99.90;;;;;;5074545;27;20067;-95
2023/12/25 01:48:15;;;;;;;5.45;5.15;;;15.70;99.90;;;;;;5072057;28;20066;-93
2023/12/25 01:50:40;;;;;;;3.80;3.60;;;15.70;99.90;;;;;;5087052;28;20135;-92
2023/12/25 01:53:12;;;;;;;4.53;4.32;;;15.70;99.90;;;;;;5093071;28;20098;-96
2023/12/25 01:55:43;;;;;;;4.00;3.80;;;15.70;99.90;;;;;;5075525;28;20485;-95
2023/12/25 01:58:09;;;;;;;4.15;3.95;;;15.70;99.90;;;;;;5091861;28;20039;-91
2023/12/25 02:00:39;;;;;;;4.32;4.13;;;15.70;99.90;;;;;;5085523;28;20044;-95
2023/12/25 02:03:07;;;;;;;4.88;4.57;;;15.70;99.90;;;;;;5077401;28;20047;-94
2023/12/25 02:05:42;;;;;;;3.75;3.55;;;15.70;99.90;;;;;;5074528;28;20108;-93
2023/12/25 02:08:27;;;;;;;4.03;3.83;;;15.60;99.90;;;;;;5070715;28;20078;-93
2023/12/25 02:11:02;;;;;;;4.15;3.95;;;15.60;99.90;;;;;;5075468;28;20104;-94
2023/12/25 02:13:31;;;;;;;5.22;4.93;;;15.50;99.90;;;;;;5074299;28;20550;-95
2023/12/25 02:16:00;;;;;;;5.35;5.05;;;15.50;99.90;;;;;;5071004;28;20044;-96
2023/12/25 02:18:30;;;;;;;4.90;4.60;;;15.50;99.90;;;;;;5075740;28;20066;-94
2023/12/25 02:20:56;;;;;;;4.88;4.57;;;15.50;99.90;;;;;;5075282;28;20476;-92
2023/12/25 02:23:25;;;;;;;5.15;4.85;;;15.50;99.90;;;;;;5087385;28;20044;-93
2023/12/25 02:26:01;;;;;;;4.25;4.05;;;15.50;99.90;;;;;;5073344;28;20079;-92
2023/12/25 02:28:30;;;;;;;5.60;5.30;;;15.40;99.90;;;;;;5088546;27;20043;-94
2023/12/25 02:31:08;;;;;;;;;;;;;;;;;;;;;
2023/12/25 02:33:43;;;;;;;4.32;4.13;;;15.40;99.90;;;;;;5090387;28;20055;-94
2023/12/25 02:36:08;;;;;;;4.30;4.10;;;15.50;99.90;;;;;;5075824;28;20050;-93
2023/12/25 02:38:37;;;;;;;3.70;3.50;;;15.40;99.90;;;;;;5073375;28;20051;-92
2023/12/25 02:41:08;;;;;;;5.18;4.88;;;15.40;99.90;;;;;;5075267;28;20084;-93
2023/12/25 02:43:34;;;;;;;4.68;4.43;;;15.30;99.90;;;;;;5092768;28;20075;-95
2023/12/25 02:46:02;;;;;;;4.30;4.10;;;15.30;99.90;;;;;;5074406;28;20039;-92
2023/12/25 02:48:37;;;;;;;5.18;4.88;;;15.30;99.90;;;;;;5073943;28;20050;-95
2023/12/25 02:51:06;;;;;;;4.82;4.53;;;15.20;99.90;;;;;;5075210;28;20036;-94
2023/12/25 02:53:34;;;;;;;4.25;4.05;;;15.20;99.90;;;;;;5073045;28;20485;-91
2023/12/25 02:56:00;;;;;;;3.70;3.50;;;15.20;99.90;;;;;;5077213;28;20075;-93
2023/12/25 02:58:28;;;;;;;5.05;4.75;;;15.20;99.90;;;;;;5077168;28;20841;-94
2023/12/25 03:00:54;;;;;;;4.40;4.20;;;15.20;99.90;;;;;;5071859;28;20689;-92
2023/12/25 03:03:22;;;;;;;4.85;4.60;;;15.20;99.90;;;;;;5075208;28;20136;-92
2023/12/25 03:05:54;;;;;;;4.30;4.10;;;15.20;99.90;;;;;;5072500;28;20051;-94
2023/12/25 03:08:24;;;;;;;4.32;4.13;;;15.20;99.90;;;;;;5093730;28;20899;-94
2023/12/25 03:10:52;;;;;;;4.72;4.47;;;15.20;99.90;;;;;;5074749;28;20047;-89
2023/12/25 03:13:25;;;;;;;4.38;4.18;;;15.10;99.90;;;;;;5090650;28;20048;-94
2023/12/25 03:15:51;;;;;;;4.88;4.65;;;15.20;99.90;;;;;;5072323;28;20054;-94
2023/12/25 03:18:16;;;;;;;5.25;4.95;;;15.20;99.90;;;;;;5074040;28;20051;-93
2023/12/25 03:20:42;;;;;;;4.95;4.65;;;15.20;99.90;;;;;;5072134;28;20044;-92
2023/12/25 03:23:10;;;;;;;4.40;4.20;;;15.10;99.90;;;;;;5073224;28;20056;-93
2023/12/25 03:25:54;;;;;;;4.22;4.03;;;15.10;99.90;;;;;;5073527;28;20100;-96
2023/12/25 03:28:27;;;;;;;5.65;5.35;;;15.10;99.90;;;;;;5075191;28;20067;-94
2023/12/25 03:30:54;;;;;;;5.13;4.82;;;15.30;99.90;;;;;;5089884;28;20100;-92
2023/12/25 03:33:25;;;;;;;4.75;4.53;;;15.20;99.90;;;;;;5073799;28;20496;-92
2023/12/25 03:35:54;;;;;;;4.30;4.10;;;15.30;99.90;;;;;;5072959;28;20070;-93
2023/12/25 03:38:29;;;;;;;5.07;4.78;;;15.10;99.90;;;;;;5072646;28;20072;-92
2023/12/25 03:40:58;;;;;;;5.22;4.93;;;15.20;99.90;;;;;;5074966;28;20079;-95
2023/12/25 03:43:23;;;;;;;5.60;5.30;;;15.30;99.90;;;;;;5071475;28;20061;-92
2023/12/25 03:46:01;;;;;;;5.25;4.95;;;15.20;99.90;;;;;;5073253;28;20393;-94
2023/12/25 03:48:27;;;;;;;4.57;4.38;;;15.20;99.90;;;;;;5073566;28;20047;-93
2023/12/25 03:50:53;;;;;;;4.57;4.38;;;15.20;99.90;;;;;;5074552;28;20633;-92
2023/12/25 03:53:21;;;;;;;5.15;4.85;;;15.20;99.90;;;;;;5073066;28;20512;-93
2023/12/25 03:55:47;;;;;;;4.65;4.40;;;15.20;99.90;;;;;;5068385;28;20585;-94
2023/12/25 03:58:13;;;;;;;5.35;5.05;;;15.20;99.90;;;;;;5071687;28;20718;-93
2023/12/25 04:00:41;;;;;;;5.45;5.15;;;15.20;99.90;;;;;;5072876;28;20428;-92
2023/12/25 04:03:07;;;;;;;4.25;4.05;;;15.20;99.90;;;;;;5067986;28;20761;-93
2023/12/25 04:05:47;;;;;;;5.50;5.20;;;15.10;99.90;;;;;;5074343;28;20035;-96
2023/12/25 04:08:20;;;;;;;4.25;4.05;;;15.20;99.90;;;;;;5074489;28;20058;-94
2023/12/25 04:10:46;;;;;;;4.85;4.55;;;15.10;99.90;;;;;;5075204;28;20074;-92
2023/12/25 04:13:11;;;;;;;3.83;3.63;;;15.20;99.90;;;;;;5074925;28;20044;-91
2023/12/25 04:15:37;;;;;;;4.95;4.65;;;15.20;99.90;;;;;;5072824;28;20040;-90
2023/12/25 04:18:05;;;;;;;5.25;4.95;;;15.20;99.90;;;;;;5073596;28;20089;-92
2023/12/25 04:20:39;;;;;;;4.45;4.25;;;15.20;99.90;;;;;;5071543;28;20035;-92
2023/12/25 04:23:05;;;;;;;4.18;3.97;;;15.10;99.90;;;;;;5073439;28;20052;-92
2023/12/25 04:25:31;;;;;;;5.25;4.95;;;15.20;99.90;;;;;;5074281;28;20039;-93
2023/12/25 04:27:57;;;;;;;3.92;3.72;;;15.10;99.90;;;;;;5074521;28;20054;-93
2023/12/25 04:30:22;;;;;;;5.07;4.78;;;15.20;99.90;;;;;;5076546;28;20570;-93
2023/12/25 04:32:54;;;;;;;4.03;3.83;;;15.20;99.90;;;;;;5074214;28;20043;-90
2023/12/25 04:35:20;;;;;;;4.25;4.05;;;15.10;99.90;;;;;;5090180;28;20046;-92
2023/12/25 04:38:01;;;;;;;5.00;4.70;;;15.10;99.90;;;;;;5074484;28;20167;-92
2023/12/25 04:40:31;;;;;;;5.15;4.85;;;15.10;99.90;;;;;;5072836;28;20059;-95
2023/12/25 04:43:14;;;;;;;5.05;4.75;;;15.20;99.90;;;;;;5075399;28;20043;-95
2023/12/25 04:45:42;;;;;;;4.95;4.65;;;15.20;99.90;;;;;;5072726;28;20050;-94
2023/12/25 04:48:08;;;;;;;4.95;4.65;;;15.20;99.90;;;;;;5072839;28;20506;-88
2023/12/25 04:50:38;;;;;;;3.72;3.53;;;15.20;99.90;;;;;;5073548;28;20074;-93
2023/12/25 04:53:07;;;;;;;4.22;4.03;;;15.30;99.90;;;;;;5087688;28;20092;-91
2023/12/25 04:55:57;;;;;;;4.30;4.10;;;15.30;99.90;;;;;;5091465;28;20405;-96
2023/12/25 04:58:23;;;;;;;3.75;3.55;;;15.30;99.90;;;;;;5074289;28;20039;-93
2023/12/25 05:00:58;;;;;;;4.78;4.47;;;15.40;99.90;;;;;;5074727;28;20393;-94
2023/12/25 05:03:38;;;;;;;4.85;4.55;;;15.30;99.90;;;;;;5071090;28;20135;-93
2023/12/25 05:06:04;;;;;;;3.70;3.50;;;15.30;99.90;;;;;;5070243;28;20115;-92
2023/12/25 05:08:30;;;;;;;4.70;4.40;;;15.40;99.90;;;;;;5072733;28;20119;-92
2023/12/25 05:10:56;;;;;;;4.00;3.80;;;15.40;99.90;;;;;;5070498;28;20085;-92
2023/12/25 05:13:22;;;;;;;4.50;4.30;;;15.30;99.90;;;;;;5070389;28;20036;-88
2023/12/25 05:15:50;;;;;;;4.10;3.90;;;15.30;99.90;;;;;;5068778;28;20040;-96
2023/12/25 05:18:16;;;;;;;4.22;4.03;;;15.30;99.90;;;;;;5079135;28;20051;-92
2023/12/25 05:20:42;;;;;;;4.28;4.07;;;15.30;99.90;;;;;;5074880;28;20039;-89
2023/12/25 05:23:08;;;;;;;4.25;4.05;;;15.30;99.90;;;;;;5091693;28;20051;-90
2023/12/25 05:25:33;;;;;;;4.93;4.63;;;15.30;99.90;;;;;;5075367;28;20046;-94
2023/12/25 05:27:59;;;;;;;4.38;4.18;;;15.30;99.90;;;;;;5077720;28;20035;-90
2023/12/25 05:30:27;;;;;;;4.18;3.97;;;15.20;99.90;;;;;;5076153;28;20040;-94
2023/12/25 05:32:53;;;;;;;4.28;4.07;;;15.20;99.90;;;;;;5093286;28;20044;-92
2023/12/25 05:35:19;;;;;;;4.45;4.22;;;15.20;99.90;;;;;;5075726;28;20047;-92
2023/12/25 05:37:47;;;;;;;4.18;3.97;;;15.20;99.90;;;;;;5074876;28;20062;-89
2023/12/25 05:40:25;;;;;;;3.65;3.45;;;15.20;99.90;;;;;;5077768;28;20047;-93
2023/12/25 05:42:50;;;;;;;4.07;3.88;;;15.20;99.90;;;;;;5078581;28;20039;-93
2023/12/25 05:45:18;;;;;;;3.28;3.08;;;15.20;99.90;;;;;;5089200;28;20040;-92
2023/12/25 05:47:49;;;;;;;3.30;3.10;;;15.10;99.90;;;;;;5080370;28;20059;-92
2023/12/25 05:50:17;;;;;;;4.28;4.07;;;15.10;99.90;;;;;;5062744;28;20101;-89
2023/12/25 05:52:43;;;;;;;3.70;3.50;;;15.10;99.90;;;;;;5072692;28;20048;-92
2023/12/25 05:55:12;;;;;;;3.53;3.33;;;15.20;99.90;;;;;;5073363;28;20143;-91
2023/12/25 05:57:37;;;;;;;3.60;3.40;;;15.10;99.90;;;;;;5074959;28;20488;-94
2023/12/25 06:00:04;;;;;;;4.18;3.97;;;15.20;99.90;;;;;;5074110;28;20489;-93
2023/12/25 06:02:30;;;;;;;4.35;4.15;;;15.20;99.90;;;;;;5071368;28;20056;-92
2023/12/25 06:04:56;;;;;;;4.07;3.88;;;15.20;99.90;;;;;;5088843;28;20044;-94
2023/12/25 06:07:23;;;;;;;3.97;3.78;;;15.20;99.90;;;;;;5072100;28;20047;-91
2023/12/25 06:09:48;;;;;;;3.67;3.47;;;15.20;99.90;;;;;;5069120;28;20047;-92
2023/12/25 06:12:14;;;;;;;3.53;3.33;;;15.20;99.90;;;;;;5071925;28;20558;-91
2023/12/25 06:14:40;;;;;;;3.75;3.55;;;15.20;99.90;;;;;;5068906;28;20046;-92
2023/12/25 06:17:05;;;;;;;3.42;3.22;;;15.10;99.90;;;;;;5075488;28;20035;-92
2023/12/25 06:19:31;;;;;;;3.67;3.47;;;15.00;99.90;;;;;;5077336;28;20065;-92
2023/12/25 06:21:57;;;;;;;3.85;3.65;;;15.00;99.90;;;;;;5077007;27;20035;-91
2023/12/25 06:24:22;;;;;;;3.20;3.00;;;15.00;99.90;;;;;;5074933;27;20044;-90
2023/12/25 06:26:50;;;;;;;4.72;4.47;;;15.00;99.90;;;;;;5091121;28;20142;-90
2023/12/25 06:29:16;;;;;;;3.45;3.25;;;15.00;99.90;;;;;;5089559;28;20127;-92
2023/12/25 06:31:45;;;;;;;4.20;4.00;;;15.00;99.90;;;;;;5074582;28;20123;-91
2023/12/25 06:34:11;;;;;;;3.13;2.92;;;15.00;99.90;;;;;;5076745;28;20047;-89
2023/12/25 06:36:37;;;;;;;4.20;4.00;;;15.00;99.90;;;;;;5075667;28;20047;-92
2023/12/25 06:39:02;;;;;;;3.47;3.28;;;14.90;99.90;;;;;;5078317;28;20035;-90
2023/12/25 06:41:28;;;;;;;3.88;3.67;;;14.90;99.90;;;;;;5073362;27;20035;-90
2023/12/25 06:43:54;;;;;;;3.88;3.67;;;14.90;99.90;;;;;;5076077;28;20074;-91
2023/12/25 06:46:20;;;;;;;3.78;3.58;;;14.80;99.90;;;;;;5075264;27;20052;-91
2023/12/25 06:48:46;;;;;;;3.92;3.72;;;14.70;99.90;;;;;;5073677;28;20044;-90
2023/12/25 06:51:11;;;;;;;4.53;4.30;;;14.80;99.90;;;;;;5077480;28;20051;-92
2023/12/25 06:53:37;;;;;;;2.88;2.78;;;14.70;99.90;;;;;;5073132;28;20081;-92
2023/12/25 06:56:04;;;;;;;3.40;3.20;;;14.60;99.90;;;;;;5073664;28;20046;-89
2023/12/25 06:58:29;;;;;;;3.95;3.75;;;14.70;99.90;;;;;;5071598;28;20052;-90
2023/12/25 07:00:55;;;;;;;3.78;3.58;;;14.70;99.90;;;;;;5072211;28;20123;-90
2023/12/25 07:03:21;;;;;;;4.25;4.05;;;14.70;99.90;;;;;;5073644;28;20039;-91
2023/12/25 07:05:48;;;;;;;3.70;3.50;;;14.70;99.90;;;;;;5089570;28;20101;-90
2023/12/25 07:08:14;;;;;;;3.60;3.40;;;14.70;99.90;;;;;;5087518;28;20051;-90
2023/12/25 07:10:40;;;;;;;3.33;3.13;;;14.70;99.90;;;;;;5073655;28;20126;-91
2023/12/25 07:13:05;;;;;;;3.67;3.47;;;14.60;99.90;;;;;;5074270;28;20119;-91
2023/12/25 07:15:33;;;;;;;3.97;3.78;;;14.60;99.90;;;;;;5075045;28;20176;-91
2023/12/25 07:17:58;;;;;;;3.95;3.75;;;14.60;99.90;;;;;;5076301;28;20043;-92
2023/12/25 07:20:24;;;;;;;4.25;4.05;;;14.60;99.90;;;;;;5072729;28;20043;-93
2023/12/25 07:22:53;;;;;;;4.05;3.85;;;14.60;99.90;;;;;;5072115;28;20105;-93
2023/12/25 07:25:21;;;;;;;3.55;3.35;;;14.60;99.90;;;;;;5071796;28;20043;-94
2023/12/25 07:27:47;;;;;;;3.08;2.92;;;14.60;99.90;;;;;;5070121;28;20504;-92
2023/12/25 07:30:13;;;;;;;3.08;2.92;;;14.60;99.90;;;;;;5071688;28;20055;-92
2023/12/25 07:32:41;;;;;;;3.33;3.13;;;14.50;99.90;;;;;;5074177;28;20116;-92
2023/12/25 07:35:07;;;;;;;3.85;3.65;;;14.50;99.90;;;;;;5071607;28;20116;-90
2023/12/25 07:37:33;;;;;;;4.15;3.95;;;14.50;99.90;;;;;;5089259;28;20071;-91
2023/12/25 07:39:59;;;;;;;3.88;3.67;;;14.50;99.90;;;;;;5068853;28;20385;-90
2023/12/25 07:42:26;;;;;;;3.90;3.70;;;14.30;99.90;;;;;;5074457;28;20051;-91
2023/12/25 07:44:52;;;;;;;4.05;3.85;;;14.40;99.90;;;;;;5073167;28;20489;-92
2023/12/25 07:47:18;;;;;;;4.22;4.03;;;14.30;99.90;;;;;;5086846;28;20101;-91
2023/12/25 07:49:43;;;;;;;3.67;3.47;;;14.30;99.90;;;;;;5072557;28;20048;-88
2023/12/25 07:52:09;;;;;;;4.45;4.25;;;14.30;99.90;;;;;;5086705;28;20031;-89
2023/12/25 07:54:35;;;;;;;4.60;4.38;;;14.20;99.90;;;;;;5067862;28;20050;-91
2023/12/25 07:57:03;;;;;;;3.80;3.60;;;14.20;99.90;;;;;;5072468;27;20573;-91
2023/12/25 07:59:29;;;;;;;4.00;3.80;;;14.20;99.90;;;;;;5069987;28;20044;-93
2023/12/25 08:01:55;;;;;;;3.75;3.55;;;14.20;99.90;;;;;;5074224;28;20054;-89
2023/12/25 08:04:20;;;;;;;4.80;4.55;;;14.20;99.90;;;;;;5069181;28;20044;-90
2023/12/25 08:06:46;;;;;;;3.70;3.50;;;14.20;99.90;;;;;;5071388;28;20043;-90
2023/12/25 08:09:12;;;;;;;4.00;3.80;;;14.20;99.90;;;;;;5081807;28;20032;-91
2023/12/25 08:11:38;;;;;;;3.95;3.75;;;14.20;99.90;;;;;;5072426;28;20048;-90
2023/12/25 08:14:04;;;;;;;3.83;3.63;;;14.10;99.90;;;;;;5084581;28;20040;-91
2023/12/25 08:16:29;;;;;;;3.80;3.60;;;14.10;99.90;;;;;;5070086;28;20554;-89
2023/12/25 08:18:55;;;;;;;4.22;4.03;;;14.10;99.90;;;;;;5070004;28;20043;-89
2023/12/25 08:21:22;;;;;;;4.30;4.10;;;14.00;99.90;;;;;;5071405;28;20119;-92
2023/12/25 08:23:48;;;;;;;4.28;4.07;;;14.00;99.90;;;;;;5070629;28;20390;-89
2023/12/25 08:26:14;;;;;;;4.30;4.10;;;14.00;99.90;;;;;;5089963;28;20065;-90
2023/12/25 08:28:40;;;;;;;3.95;3.75;;;14.00;99.90;;;;;;5088105;28;20043;-90
2023/12/25 08:31:07;;;;;;;3.90;3.70;;;14.00;99.90;;;;;;5074657;28;20043;-91
2023/12/25 08:33:34;;;;;;;4.53;4.32;;;13.90;99.90;;;;;;5071474;28;20083;-90
2023/12/25 08:36:00;;;;;;;4.47;4.28;;;14.00;99.90;;;;;;5071031;28;20097;-90
2023/12/25 08:38:26;;;;;;;4.07;3.88;;;14.00;99.90;;;;;;5070634;28;20493;-90
2023/12/25 08:40:51;;;;;;;5.35;5.05;;;13.90;99.90;;;;;;5086858;28;20056;-90
2023/12/25 08:43:17;;;;;;;4.10;3.90;;;13.90;99.90;;;;;;5071762;28;20062;-90
2023/12/25 08:45:43;;;;;;;4.32;4.13;;;13.90;99.90;;;;;;5068110;28;20059;-92
2023/12/25 08:48:08;;;;;;;4.38;4.18;;;13.90;99.90;;;;;;5066850;28;20039;-90
2023/12/25 08:50:35;;;;;;;4.25;4.05;;;13.90;99.90;;;;;;5068281;28;20028;-90
2023/12/25 08:53:00;;;;;;;4.50;4.30;;;13.90;99.90;;;;;;5083728;28;20044;-90
2023/12/25 08:55:26;;;;;;;5.05;4.75;;;13.90;99.90;;;;;;5064292;28;20058;-90
2023/12/25 08:57:52;;;;;;;4.30;4.10;;;13.90;99.90;;;;;;5066839;28;20051;-90
2023/12/25 09:00:18;;;;;;;4.20;4.00;;;13.90;99.90;;;;;;5089993;28;20050;-92
2023/12/25 09:02:43;;;;;;;4.25;4.05;;;13.90;99.90;;;;;;5087540;28;20516;-92
2023/12/25 09:05:09;;;;;;;4.28;4.07;;;14.00;99.90;;;;;;5091095;28;20039;-90
2023/12/25 09:07:35;;;;;;;4.53;4.32;;;14.00;99.90;;;;;;5069368;28;20050;-90
2023/12/25 09:10:01;;;;;;;4.25;4.05;;;14.00;99.90;;;;;;5075024;28;20050;-89
2023/12/25 09:12:26;;;;;;;4.35;4.15;;;14.20;99.90;;;;;;5092438;28;20042;-89
2023/12/25 09:14:52;;;;;;;4.50;4.30;;;14.20;99.90;;;;;;5074661;28;20044;-91
2023/12/25 09:17:18;;;;;;;4.00;3.80;;;14.20;99.90;;;;;;5076606;28;20055;-92
2023/12/25 09:19:44;;;;;;;4.43;4.22;;;14.20;99.90;;;;;;5073771;28;20048;-88
2023/12/25 09:22:09;;;;;;;4.82;4.53;;;14.20;99.90;;;;;;5090851;28;21316;-89
2023/12/25 09:24:35;;;;;;;4.82;4.53;;;14.30;99.90;;;;;;5093132;28;20101;-89
2023/12/25 09:27:04;;;;;;;4.30;4.10;;;14.20;99.90;;;;;;5072822;28;20039;-93
2023/12/25 09:29:29;;;;;;;4.90;4.60;;;14.20;99.90;;;;;;5073226;28;20075;-92
2023/12/25 09:31:55;;;;;;;4.30;4.10;;;14.30;99.90;;;;;;5091932;28;20105;-90
2023/12/25 09:34:21;;;;;;;4.10;3.90;;;14.30;99.90;;;;;;5090466;28;20056;-90
2023/12/25 09:36:46;;;;;;;4.72;4.43;;;14.40;99.90;;;;;;5076301;28;20613;-94
2023/12/25 09:39:12;;;;;;;4.30;4.10;;;14.40;99.90;;;;;;5077005;28;20412;-93
2023/12/25 09:41:42;;;;;;;4.85;4.55;;;14.40;99.90;;;;;;5074219;28;20044;-90
2023/12/25 09:44:08;;;;;;;4.75;4.45;;;14.40;99.90;;;;;;5085700;28;20101;-90
2023/12/25 09:46:34;;;;;;;4.20;4.00;;;14.40;99.90;;;;;;5076537;28;20435;-91
2023/12/25 09:49:00;;;;;;;4.10;3.90;;;14.40;99.90;;;;;;5073157;28;20104;-93
2023/12/25 09:51:32;;;;;;;3.92;3.72;;;14.40;99.90;;;;;;5073765;28;20139;-90
2023/12/25 09:53:59;;;;;;;4.22;4.03;;;14.40;99.90;;;;;;5074162;28;20158;-90
2023/12/25 09:56:26;;;;;;;4.60;4.32;;;14.30;99.90;;;;;;5069409;28;20078;-89
2023/12/25 09:58:53;;;;;;;3.83;3.63;;;14.30;99.90;;;;;;5088723;28;20066;-90
2023/12/25 10:01:20;;;;;;;4.70;4.45;;;14.30;99.90;;;;;;5091805;28;20071;-92
2023/12/25 10:03:46;;;;;;;4.13;3.92;;;14.40;99.90;;;;;;5067551;28;20040;-90
2023/12/25 10:06:13;;;;;;;4.78;4.47;;;14.40;99.90;;;;;;5074736;28;20048;-89
2023/12/25 10:08:39;;;;;;;3.70;3.50;;;14.50;99.90;;;;;;5091336;28;20046;-93
2023/12/25 10:11:08;;;;;;;3.50;3.30;;;14.70;99.90;;;;;;5075971;28;20145;-90
2023/12/25 10:13:34;;;;;;;3.83;3.63;;;14.80;99.90;;;;;;5087329;28;20106;-87
2023/12/25 10:16:02;;;;;;;4.20;4.00;;;14.80;99.90;;;;;;5089091;28;20052;-90
2023/12/25 10:18:28;;;;;;;3.40;3.20;;;14.90;99.90;;;;;;5093340;28;20659;-93
2023/12/25 10:20:59;;;;;;;3.72;3.53;;;14.80;99.90;;;;;;5077199;28;20131;-90
2023/12/25 10:23:30;;;;;;;3.15;2.95;;;14.80;99.90;;;;;;5073817;28;20040;-88
2023/12/25 10:26:01;;;;;;;3.67;3.47;;;14.80;99.90;;;;;;5072178;28;20105;-90
2023/12/25 10:28:28;;;;;;;3.85;3.65;;;14.70;99.90;;;;;;5068438;28;20040;-91
2023/12/25 10:31:04;;;;;;;3.60;3.40;;;14.70;99.90;;;;;;5089504;28;20047;-93
2023/12/25 10:33:35;;;;;;;3.47;3.28;;;14.70;99.90;;;;;;5075079;28;20405;-91
2023/12/25 10:36:05;;;;;;;2.80;2.70;;;14.70;99.90;;;;;;5074903;28;20108;-93
2023/12/25 10:38:35;;;;;;;2.70;2.60;;;14.80;99.90;;;;;;5071801;28;20039;-92
2023/12/25 10:41:20;;;;;;;3.13;2.92;;;14.90;99.90;;;;;;5067703;28;20040;-88
2023/12/25 10:43:53;;;;;;;2.60;2.50;;;14.90;99.90;;;;;;5074179;27;20036;-90
2023/12/25 10:46:25;;;;;;;3.22;3.05;;;14.90;99.90;;;;;;5068127;28;20048;-91
2023/12/25 10:48:53;;;;;;;3.47;3.28;;;14.90;99.90;;;;;;5074993;28;20136;-90
2023/12/25 10:51:40;;;;;;;3.35;3.15;;;14.80;99.90;;;;;;5073285;28;20031;-92
2023/12/25 10:54:08;;;;;;;3.13;2.92;;;14.90;99.90;;;;;;5076623;28;20058;-91
2023/12/25 10:56:36;;;;;;;3.78;3.58;;;14.80;99.90;;;;;;5074393;28;20428;-89
2023/12/25 10:59:16;;;;;;;2.58;2.47;;;14.80;99.90;;;;;;5073169;28;20127;-92
2023/12/25 11:01:47;;;;;;;2.78;2.67;;;14.80;99.90;;;;;;5070918;28;20535;-90
2023/12/25 11:04:17;;;;;;;2.78;2.67;;;14.80;99.90;;;;;;5070034;28;20047;-90
2023/12/25 11:06:47;;;;;;;3.85;3.65;;;14.80;99.90;;;;;;5068195;28;20081;-90
2023/12/25 11:09:15;;;;;;;2.78;2.67;;;14.90;99.90;;;;;;5072684;28;20168;-91
2023/12/25 11:11:41;;;;;;;3.10;2.90;;;14.90;99.90;;;;;;5070627;28;20046;-93
2023/12/25 11:14:07;;;;;;;2.35;2.25;;;14.80;99.90;;;;;;5073472;28;20047;-88
2023/12/25 11:16:36;;;;;;;2.70;2.60;;;14.90;99.90;;;;;;5068278;27;20484;-90
2023/12/25 11:19:03;;;;;;;2.58;2.47;;;14.90;99.90;;;;;;5088639;28;20564;-92
2023/12/25 11:21:30;;;;;;;3.17;2.97;;;14.90;99.90;;;;;;5082814;28;20633;-90
2023/12/25 11:23:56;;;;;;;2.38;2.28;;;14.90;99.90;;;;;;5069371;28;20047;-89
2023/12/25 11:26:29;;;;;;;3.25;3.05;;;14.90;99.90;;;;;;5070038;28;20044;-90
2023/12/25 11:29:07;;;;;;;2.80;2.70;;;14.90;99.90;;;;;;5067653;28;20131;-91
2023/12/25 11:31:45;;;;;;;2.65;2.55;;;14.90;99.90;;;;;;5069289;28;20044;-90
2023/12/25 11:34:22;;;;;;;2.55;2.45;;;15.00;99.90;;;;;;5070099;28;20043;-89
2023/12/25 11:36:57;;;;;;;2.40;2.30;;;15.00;99.90;;;;;;5067363;28;20048;-89
2023/12/25 11:39:27;;;;;;;3.28;3.08;;;15.00;99.90;;;;;;5085638;27;20134;-86
2023/12/25 11:41:53;;;;;;;2.63;2.53;;;15.00;99.90;;;;;;5078800;28;20039;-87
2023/12/25 11:44:30;;;;;;;3.28;3.08;;;14.90;99.90;;;;;;5071646;27;20070;-88
2023/12/25 11:46:59;;;;;;;3.28;3.08;;;14.90;99.90;;;;;;5086038;28;20076;-89
2023/12/25 11:49:27;;;;;;;2.63;2.53;;;14.90;99.90;;;;;;5064667;28;20093;-88
2023/12/25 11:51:53;;;;;;;2.85;2.72;;;14.80;99.90;;;;;;5064633;28;20044;-88
2023/12/25 11:54:19;;;;;;;3.53;3.33;;;14.80;99.90;;;;;;5078310;28;20043;-88
2023/12/25 11:56:46;;;;;;;3.22;3.03;;;14.80;99.90;;;;;;5064641;28;20138;-92
2023/12/25 11:59:12;;;;;;;2.55;2.45;;;14.80;99.90;;;;;;5067517;28;20151;-89
2023/12/25 12:01:41;;;;;;;2.22;2.13;;;14.80;99.90;;;;;;5067971;28;20051;-89
2023/12/25 12:04:06;;;;;;;2.55;2.45;;;14.80;99.90;;;;;;5071693;28;20077;-88
2023/12/25 12:06:32;;;;;;;3.55;3.35;;;14.80;99.90;;;;;;5084287;28;20072;-90
2023/12/25 12:08:58;;;;;;;2.88;2.75;;;14.80;99.90;;;;;;5067465;28;20127;-90
2023/12/25 12:11:24;;;;;;;2.83;2.72;;;14.80;99.90;;;;;;5082323;28;20089;-86
2023/12/25 12:13:50;;;;;;;2.40;2.30;;;14.80;99.90;;;;;;5087290;28;20067;-89
2023/12/25 12:16:16;;;;;;;3.58;3.38;;;14.80;99.90;;;;;;5084777;28;20130;-89
2023/12/25 12:18:41;;;;;;;3.10;2.90;;;14.70;99.90;;;;;;5070324;28;20142;-89
2023/12/25 12:21:07;;;;;;;2.83;2.70;;;14.60;99.90;;;;;;5064644;28;20035;-88
2023/12/25 12:23:33;;;;;;;3.50;3.30;;;14.70;99.90;;;;;;5069040;28;20093;-89
2023/12/25 12:26:00;;;;;;;3.05;2.85;;;14.70;99.90;;;;;;5071804;28;20047;-89
2023/12/25 12:28:26;;;;;;;3.22;3.03;;;14.80;99.90;;;;;;5065529;28;20044;-90
2023/12/25 12:30:52;;;;;;;2.95;2.75;;;14.60;99.90;;;;;;5086934;28;20118;-90
2023/12/25 12:33:18;;;;;;;2.50;2.40;;;14.50;99.90;;;;;;5084971;28;20051;-91
2023/12/25 12:35:48;;;;;;;2.72;2.63;;;14.60;99.90;;;;;;5075450;28;20050;-92
2023/12/25 12:38:14;;;;;;;2.97;2.80;;;14.40;99.90;;;;;;5076454;27;20042;-92
2023/12/25 12:40:40;;;;;;;3.20;3.00;;;14.40;99.90;;;;;;5072800;28;20039;-93
2023/12/25 12:43:09;;;;;;;2.65;2.55;;;14.60;99.90;;;;;;5075667;28;20044;-90
2023/12/25 12:45:34;;;;;;;3.25;3.05;;;14.50;99.90;;;;;;5069682;28;20040;-92
2023/12/25 12:48:06;;;;;;;3.45;3.25;;;14.40;99.90;;;;;;5075027;28;20100;-94
2023/12/25 12:50:32;;;;;;;3.15;2.97;;;14.40;99.90;;;;;;5072115;28;20066;-87
2023/12/25 12:53:09;;;;;;;2.47;2.38;;;14.30;99.90;;;;;;5086219;27;20070;-91